sensor_id;sensor_type;location;lat;lon;timestamp;pressure;altitude;pressure_sealevel;temperature;humidity
47670;BME280;33408;52.062;11.722;2023-03-03T00:01:27;101965.28;;;-0.03;100.00
47670;BME280;33408;52.062;11.722;2023-03-03T00:03:55;101953.53;;;-0.19;100.00
47670;BME280;33408;52.062;11.722;2023-03-03T00:06:21;101950.44;;;-0.12;100.00
47670;BME280;33408;52.062;11.722;2023-03-03T00:08:48;101947.50;;;-0.02;100.00
47670;BME280;33408;52.062;11.722;2023-03-03T00:11:15;101945.06;;;0.02;100.00
47670;BME280;33408;52.062;11.722;2023-03-03T00:13:46;101954.06;;;-0.07;100.00
47670;BME280;33408;52.062;11.722;2023-03-03T00:16:16;101954.06;;;-0.07;100.00
47670;BME280;33408;52.062;11.722;2023-03-03T00:18:46;101951.59;;;0.14;100.00
47670;BME280;33408;52.062;11.722;2023-03-03T00:21:28;101956.38;;;0.07;100.00
47670;BME280;33408;52.062;11.722;2023-03-03T00:24:01;101957.97;;;0.05;100.00
47670;BME280;33408;52.062;11.722;2023-03-03T00:26:32;101960.78;;;-0.09;100.00
47670;BME280;33408;52.062;11.722;2023-03-03T00:29:22;101968.06;;;-0.16;100.00
47670;BME280;33408;52.062;11.722;2023-03-03T00:31:49;101967.78;;;0.15;100.00
47670;BME280;33408;52.062;11.722;2023-03-03T00:34:23;101966.97;;;0.35;100.00
47670;BME280;33408;52.062;11.722;2023-03-03T00:36:52;101976.09;;;0.30;100.00
47670;BME280;33408;52.062;11.722;2023-03-03T00:39:26;101973.41;;;0.27;100.00
47670;BME280;33408;52.062;11.722;2023-03-03T00:41:55;101975.84;;;-0.13;100.00
47670;BME280;33408;52.062;11.722;2023-03-03T00:44:38;101977.69;;;-0.11;100.00
47670;BME280;33408;52.062;11.722;2023-03-03T00:47:26;101987.41;;;-0.40;100.00
47670;BME280;33408;52.062;11.722;2023-03-03T00:49:54;101982.78;;;-0.11;100.00
47670;BME280;33408;52.062;11.722;2023-03-03T00:52:23;101992.81;;;-0.51;100.00
47670;BME280;33408;52.062;11.722;2023-03-03T00:54:53;101990.38;;;-0.84;100.00
47670;BME280;33408;52.062;11.722;2023-03-03T00:57:19;102001.31;;;-0.87;100.00
47670;BME280;33408;52.062;11.722;2023-03-03T00:59:47;101998.03;;;-0.66;100.00
47670;BME280;33408;52.062;11.722;2023-03-03T01:02:14;101997.94;;;-0.86;100.00
47670;BME280;33408;52.062;11.722;2023-03-03T01:04:43;101996.06;;;-0.54;100.00
47670;BME280;33408;52.062;11.722;2023-03-03T01:07:10;101997.81;;;-0.35;100.00
47670;BME280;33408;52.062;11.722;2023-03-03T01:09:37;101992.53;;;-0.58;100.00
47670;BME280;33408;52.062;11.722;2023-03-03T01:12:04;101991.13;;;-0.51;100.00
47670;BME280;33408;52.062;11.722;2023-03-03T01:14:31;101998.28;;;-0.24;100.00
47670;BME280;33408;52.062;11.722;2023-03-03T01:16:59;101989.81;;;-0.43;100.00
47670;BME280;33408;52.062;11.722;2023-03-03T01:19:26;101982.03;;;-0.64;100.00
47670;BME280;33408;52.062;11.722;2023-03-03T01:21:52;101984.50;;;-0.47;100.00
47670;BME280;33408;52.062;11.722;2023-03-03T01:24:19;101976.78;;;-0.49;100.00
47670;BME280;33408;52.062;11.722;2023-03-03T01:26:45;101972.63;;;-0.47;100.00
47670;BME280;33408;52.062;11.722;2023-03-03T01:29:12;101970.06;;;-0.47;100.00
47670;BME280;33408;52.062;11.722;2023-03-03T01:31:39;101971.59;;;-0.32;100.00
47670;BME280;33408;52.062;11.722;2023-03-03T01:34:07;101975.81;;;-0.33;100.00
47670;BME280;33408;52.062;11.722;2023-03-03T01:36:33;101968.91;;;-0.17;100.00
47670;BME280;33408;52.062;11.722;2023-03-03T01:39:02;101970.41;;;-0.21;100.00
47670;BME280;33408;52.062;11.722;2023-03-03T01:41:30;101983.16;;;-0.21;100.00
47670;BME280;33408;52.062;11.722;2023-03-03T01:43:58;101980.06;;;-0.33;100.00
47670;BME280;33408;52.062;11.722;2023-03-03T01:46:45;101976.22;;;-0.43;100.00
47670;BME280;33408;52.062;11.722;2023-03-03T01:49:17;101972.78;;;-0.44;100.00
47670;BME280;33408;52.062;11.722;2023-03-03T01:51:48;101966.69;;;-0.65;100.00
47670;BME280;33408;52.062;11.722;2023-03-03T01:54:20;101965.59;;;-0.70;100.00
47670;BME280;33408;52.062;11.722;2023-03-03T01:56:50;101960.56;;;-0.51;100.00
47670;BME280;33408;52.062;11.722;2023-03-03T01:59:20;101969.53;;;-0.59;100.00
47670;BME280;33408;52.062;11.722;2023-03-03T02:01:49;101976.44;;;-0.39;100.00
47670;BME280;33408;52.062;11.722;2023-03-03T02:04:17;101978.28;;;-0.34;100.00
47670;BME280;33408;52.062;11.722;2023-03-03T02:06:49;101963.13;;;-0.69;100.00
47670;BME280;33408;52.062;11.722;2023-03-03T02:09:21;101960.28;;;-0.57;100.00
47670;BME280;33408;52.062;11.722;2023-03-03T02:11:51;101965.00;;;-0.65;100.00
47670;BME280;33408;52.062;11.722;2023-03-03T02:14:20;101957.25;;;-0.30;100.00
47670;BME280;33408;52.062;11.722;2023-03-03T02:16:46;101950.84;;;-0.22;100.00
47670;BME280;33408;52.062;11.722;2023-03-03T02:19:20;101946.97;;;-0.14;100.00
47670;BME280;33408;52.062;11.722;2023-03-03T02:21:49;101938.44;;;-0.14;100.00
47670;BME280;33408;52.062;11.722;2023-03-03T02:24:22;101940.66;;;-0.03;100.00
47670;BME280;33408;52.062;11.722;2023-03-03T02:26:52;101939.53;;;-0.09;100.00
47670;BME280;33408;52.062;11.722;2023-03-03T02:29:18;101937.19;;;-0.05;100.00
47670;BME280;33408;52.062;11.722;2023-03-03T02:31:45;101929.53;;;0.15;100.00
47670;BME280;33408;52.062;11.722;2023-03-03T02:34:13;101929.31;;;0.30;100.00
47670;BME280;33408;52.062;11.722;2023-03-03T02:36:40;101928.28;;;0.46;100.00
47670;BME280;33408;52.062;11.722;2023-03-03T02:39:10;101926.66;;;0.48;100.00
47670;BME280;33408;52.062;11.722;2023-03-03T02:41:43;101929.88;;;0.63;100.00
47670;BME280;33408;52.062;11.722;2023-03-03T02:44:13;101916.78;;;0.56;100.00
47670;BME280;33408;52.062;11.722;2023-03-03T02:46:41;101919.31;;;0.34;100.00
47670;BME280;33408;52.062;11.722;2023-03-03T02:49:10;101926.09;;;0.34;100.00
47670;BME280;33408;52.062;11.722;2023-03-03T02:51:38;101923.63;;;0.35;100.00
47670;BME280;33408;52.062;11.722;2023-03-03T02:54:06;101925.84;;;0.28;100.00
47670;BME280;33408;52.062;11.722;2023-03-03T02:56:34;101926.34;;;0.21;100.00
47670;BME280;33408;52.062;11.722;2023-03-03T02:59:01;101938.88;;;0.55;100.00
47670;BME280;33408;52.062;11.722;2023-03-03T03:01:29;101930.22;;;0.51;100.00
47670;BME280;33408;52.062;11.722;2023-03-03T03:04:01;101931.31;;;0.57;100.00
47670;BME280;33408;52.062;11.722;2023-03-03T03:06:28;101924.84;;;0.86;100.00
47670;BME280;33408;52.062;11.722;2023-03-03T03:08:55;101925.94;;;0.93;100.00
47670;BME280;33408;52.062;11.722;2023-03-03T03:11:21;101914.69;;;0.66;100.00
47670;BME280;33408;52.062;11.722;2023-03-03T03:13:48;101914.94;;;0.72;100.00
47670;BME280;33408;52.062;11.722;2023-03-03T03:16:14;101916.19;;;0.82;100.00
47670;BME280;33408;52.062;11.722;2023-03-03T03:18:42;101915.06;;;0.97;100.00
47670;BME280;33408;52.062;11.722;2023-03-03T03:21:10;101915.00;;;0.95;100.00
47670;BME280;33408;52.062;11.722;2023-03-03T03:23:38;101919.41;;;0.78;100.00
47670;BME280;33408;52.062;11.722;2023-03-03T03:26:05;101922.53;;;0.71;100.00
47670;BME280;33408;52.062;11.722;2023-03-03T03:28:33;101939.94;;;0.60;100.00
47670;BME280;33408;52.062;11.722;2023-03-03T03:31:00;101928.56;;;0.52;100.00
47670;BME280;33408;52.062;11.722;2023-03-03T03:33:27;101931.78;;;0.69;100.00
47670;BME280;33408;52.062;11.722;2023-03-03T03:35:55;101931.63;;;0.85;100.00
47670;BME280;33408;52.062;11.722;2023-03-03T03:38:23;101923.78;;;1.02;100.00
47670;BME280;33408;52.062;11.722;2023-03-03T03:40:51;101929.94;;;1.07;100.00
47670;BME280;33408;52.062;11.722;2023-03-03T03:43:17;101934.97;;;1.05;100.00
47670;BME280;33408;52.062;11.722;2023-03-03T03:45:44;101921.13;;;1.21;100.00
47670;BME280;33408;52.062;11.722;2023-03-03T03:48:11;101928.91;;;1.24;100.00
47670;BME280;33408;52.062;11.722;2023-03-03T03:50:38;101937.44;;;1.25;100.00
47670;BME280;33408;52.062;11.722;2023-03-03T03:53:06;101941.09;;;1.32;100.00
47670;BME280;33408;52.062;11.722;2023-03-03T03:55:33;101940.03;;;0.83;100.00
47670;BME280;33408;52.062;11.722;2023-03-03T03:57:59;101938.91;;;0.97;100.00
47670;BME280;33408;52.062;11.722;2023-03-03T04:00:26;101932.16;;;1.20;100.00
47670;BME280;33408;52.062;11.722;2023-03-03T04:02:52;101936.28;;;1.17;100.00
47670;BME280;33408;52.062;11.722;2023-03-03T04:05:19;101940.75;;;1.22;100.00
47670;BME280;33408;52.062;11.722;2023-03-03T04:07:46;101938.25;;;1.03;100.00
47670;BME280;33408;52.062;11.722;2023-03-03T04:10:14;101948.25;;;0.97;100.00
47670;BME280;33408;52.062;11.722;2023-03-03T04:12:42;101946.66;;;1.21;100.00
47670;BME280;33408;52.062;11.722;2023-03-03T04:15:11;101951.97;;;1.05;100.00
47670;BME280;33408;52.062;11.722;2023-03-03T04:17:38;101964.31;;;0.94;100.00
47670;BME280;33408;52.062;11.722;2023-03-03T04:20:06;101962.88;;;0.80;100.00
47670;BME280;33408;52.062;11.722;2023-03-03T04:22:33;101955.78;;;0.94;100.00
47670;BME280;33408;52.062;11.722;2023-03-03T04:25:00;101961.69;;;0.93;100.00
47670;BME280;33408;52.062;11.722;2023-03-03T04:27:30;101955.09;;;0.98;100.00
47670;BME280;33408;52.062;11.722;2023-03-03T04:29:57;101949.72;;;1.13;100.00
47670;BME280;33408;52.062;11.722;2023-03-03T04:32:24;101944.50;;;1.09;100.00
47670;BME280;33408;52.062;11.722;2023-03-03T04:34:50;101945.88;;;1.22;100.00
47670;BME280;33408;52.062;11.722;2023-03-03T04:37:17;101944.44;;;1.29;100.00
47670;BME280;33408;52.062;11.722;2023-03-03T04:39:44;101947.38;;;1.40;100.00
47670;BME280;33408;52.062;11.722;2023-03-03T04:42:10;101942.56;;;1.48;100.00
47670;BME280;33408;52.062;11.722;2023-03-03T04:44:38;101947.94;;;1.10;100.00
47670;BME280;33408;52.062;11.722;2023-03-03T04:47:05;101952.13;;;1.08;100.00
47670;BME280;33408;52.062;11.722;2023-03-03T04:49:31;101951.25;;;1.30;100.00
47670;BME280;33408;52.062;11.722;2023-03-03T04:51:58;101953.47;;;1.21;100.00
47670;BME280;33408;52.062;11.722;2023-03-03T04:54:25;101950.41;;;1.08;100.00
47670;BME280;33408;52.062;11.722;2023-03-03T04:56:52;101945.25;;;0.86;100.00
47670;BME280;33408;52.062;11.722;2023-03-03T04:59:18;101947.03;;;0.88;100.00
47670;BME280;33408;52.062;11.722;2023-03-03T05:01:46;101945.66;;;0.76;100.00
47670;BME280;33408;52.062;11.722;2023-03-03T05:04:13;101949.25;;;1.00;100.00
47670;BME280;33408;52.062;11.722;2023-03-03T05:06:39;101953.72;;;0.85;100.00
47670;BME280;33408;52.062;11.722;2023-03-03T05:09:06;101955.16;;;0.99;100.00
47670;BME280;33408;52.062;11.722;2023-03-03T05:11:34;101956.00;;;0.79;100.00
47670;BME280;33408;52.062;11.722;2023-03-03T05:14:00;101951.03;;;0.82;100.00
47670;BME280;33408;52.062;11.722;2023-03-03T05:16:27;101947.81;;;0.86;100.00
47670;BME280;33408;52.062;11.722;2023-03-03T05:18:55;101949.53;;;0.87;100.00
47670;BME280;33408;52.062;11.722;2023-03-03T05:21:22;101943.88;;;0.94;100.00
47670;BME280;33408;52.062;11.722;2023-03-03T05:23:48;101942.91;;;0.90;100.00
47670;BME280;33408;52.062;11.722;2023-03-03T05:26:15;101947.63;;;0.81;100.00
47670;BME280;33408;52.062;11.722;2023-03-03T05:28:42;101941.41;;;0.96;100.00
47670;BME280;33408;52.062;11.722;2023-03-03T05:31:08;101946.63;;;0.99;100.00
47670;BME280;33408;52.062;11.722;2023-03-03T05:33:35;101948.00;;;1.12;100.00
47670;BME280;33408;52.062;11.722;2023-03-03T05:36:03;101946.44;;;0.94;100.00
47670;BME280;33408;52.062;11.722;2023-03-03T05:38:30;101939.28;;;1.06;100.00
47670;BME280;33408;52.062;11.722;2023-03-03T05:40:57;101924.00;;;0.87;100.00
47670;BME280;33408;52.062;11.722;2023-03-03T05:43:23;101923.91;;;0.84;100.00
47670;BME280;33408;52.062;11.722;2023-03-03T05:45:53;101924.03;;;1.08;100.00
47670;BME280;33408;52.062;11.722;2023-03-03T05:48:20;101920.09;;;1.16;100.00
47670;BME280;33408;52.062;11.722;2023-03-03T05:50:47;101924.75;;;1.05;100.00
47670;BME280;33408;52.062;11.722;2023-03-03T05:53:15;101928.03;;;1.24;100.00
47670;BME280;33408;52.062;11.722;2023-03-03T05:55:41;101937.06;;;1.16;100.00
47670;BME280;33408;52.062;11.722;2023-03-03T05:58:08;101949.41;;;1.26;100.00
47670;BME280;33408;52.062;11.722;2023-03-03T06:00:36;101960.03;;;1.37;100.00
47670;BME280;33408;52.062;11.722;2023-03-03T06:03:02;101951.53;;;1.15;100.00
47670;BME280;33408;52.062;11.722;2023-03-03T06:05:29;101953.34;;;1.18;100.00
47670;BME280;33408;52.062;11.722;2023-03-03T06:07:56;101957.81;;;1.23;100.00
47670;BME280;33408;52.062;11.722;2023-03-03T06:10:24;101953.06;;;1.33;100.00
47670;BME280;33408;52.062;11.722;2023-03-03T06:12:51;101956.19;;;1.25;100.00
47670;BME280;33408;52.062;11.722;2023-03-03T06:15:19;101967.47;;;1.31;100.00
47670;BME280;33408;52.062;11.722;2023-03-03T06:17:45;101970.34;;;1.17;100.00
47670;BME280;33408;52.062;11.722;2023-03-03T06:20:12;101970.34;;;1.17;100.00
47670;BME280;33408;52.062;11.722;2023-03-03T06:22:39;101961.41;;;1.28;100.00
47670;BME280;33408;52.062;11.722;2023-03-03T06:25:06;101964.91;;;1.31;100.00
47670;BME280;33408;52.062;11.722;2023-03-03T06:27:34;101967.94;;;1.43;100.00
47670;BME280;33408;52.062;11.722;2023-03-03T06:30:00;101965.31;;;1.41;100.00
47670;BME280;33408;52.062;11.722;2023-03-03T06:32:27;101966.72;;;1.33;100.00
47670;BME280;33408;52.062;11.722;2023-03-03T06:34:53;101970.94;;;1.33;100.00
47670;BME280;33408;52.062;11.722;2023-03-03T06:37:20;101969.94;;;1.50;100.00
47670;BME280;33408;52.062;11.722;2023-03-03T06:39:47;101970.13;;;1.55;100.00
47670;BME280;33408;52.062;11.722;2023-03-03T06:42:13;101972.06;;;1.39;100.00
47670;BME280;33408;52.062;11.722;2023-03-03T06:44:41;101961.16;;;1.66;100.00
47670;BME280;33408;52.062;11.722;2023-03-03T06:47:08;101958.63;;;1.66;100.00
47670;BME280;33408;52.062;11.722;2023-03-03T06:49:34;101963.91;;;1.71;100.00
47670;BME280;33408;52.062;11.722;2023-03-03T06:52:11;101968.97;;;1.48;100.00
47670;BME280;33408;52.062;11.722;2023-03-03T06:54:38;101983.03;;;1.59;100.00
47670;BME280;33408;52.062;11.722;2023-03-03T06:57:14;101976.88;;;1.54;100.00
47670;BME280;33408;52.062;11.722;2023-03-03T06:59:43;101979.19;;;1.47;100.00
47670;BME280;33408;52.062;11.722;2023-03-03T07:02:13;101981.75;;;1.69;100.00
47670;BME280;33408;52.062;11.722;2023-03-03T07:04:41;101990.31;;;1.71;100.00
47670;BME280;33408;52.062;11.722;2023-03-03T07:07:14;101996.59;;;1.79;100.00
47670;BME280;33408;52.062;11.722;2023-03-03T07:09:43;101992.81;;;1.92;100.00
47670;BME280;33408;52.062;11.722;2023-03-03T07:12:12;101990.19;;;1.91;100.00
47670;BME280;33408;52.062;11.722;2023-03-03T07:14:41;101994.38;;;2.11;100.00
47670;BME280;33408;52.062;11.722;2023-03-03T07:17:14;101995.94;;;1.85;100.00
47670;BME280;33408;52.062;11.722;2023-03-03T07:19:42;101998.06;;;1.73;100.00
47670;BME280;33408;52.062;11.722;2023-03-03T07:22:13;102005.25;;;1.83;100.00
47670;BME280;33408;52.062;11.722;2023-03-03T07:24:42;102002.56;;;1.80;100.00
47670;BME280;33408;52.062;11.722;2023-03-03T07:27:12;102012.47;;;1.50;100.00
47670;BME280;33408;52.062;11.722;2023-03-03T07:29:40;102014.38;;;1.76;100.00
47670;BME280;33408;52.062;11.722;2023-03-03T07:32:21;102020.22;;;1.95;100.00
47670;BME280;33408;52.062;11.722;2023-03-03T07:34:49;102009.50;;;2.05;100.00
47670;BME280;33408;52.062;11.722;2023-03-03T07:37:25;102017.19;;;1.82;100.00
47670;BME280;33408;52.062;11.722;2023-03-03T07:39:54;102020.34;;;1.77;100.00
47670;BME280;33408;52.062;11.722;2023-03-03T07:42:23;102026.81;;;1.90;100.00
47670;BME280;33408;52.062;11.722;2023-03-03T07:44:54;102032.56;;;1.84;100.00
47670;BME280;33408;52.062;11.722;2023-03-03T07:47:24;102033.59;;;1.67;100.00
47670;BME280;33408;52.062;11.722;2023-03-03T07:49:53;102030.25;;;1.68;100.00
47670;BME280;33408;52.062;11.722;2023-03-03T07:52:28;102033.66;;;1.68;100.00
47670;BME280;33408;52.062;11.722;2023-03-03T07:54:58;102027.38;;;1.60;100.00
47670;BME280;33408;52.062;11.722;2023-03-03T07:57:27;102033.34;;;1.60;100.00
47670;BME280;33408;52.062;11.722;2023-03-03T07:59:59;102035.19;;;1.63;100.00
47670;BME280;33408;52.062;11.722;2023-03-03T08:02:46;102036.56;;;1.55;100.00
47670;BME280;33408;52.062;11.722;2023-03-03T08:05:26;102026.06;;;1.70;100.00
47670;BME280;33408;52.062;11.722;2023-03-03T08:08:01;102036.91;;;1.64;100.00
47670;BME280;33408;52.062;11.722;2023-03-03T08:10:35;102031.72;;;1.62;100.00
47670;BME280;33408;52.062;11.722;2023-03-03T08:13:12;102042.06;;;1.66;100.00
47670;BME280;33408;52.062;11.722;2023-03-03T08:15:42;102031.22;;;1.71;100.00
47670;BME280;33408;52.062;11.722;2023-03-03T08:18:18;102039.41;;;1.85;100.00
47670;BME280;33408;52.062;11.722;2023-03-03T08:20:47;102044.50;;;1.84;100.00
47670;BME280;33408;52.062;11.722;2023-03-03T08:23:16;102048.53;;;1.78;100.00
47670;BME280;33408;52.062;11.722;2023-03-03T08:25:43;102039.09;;;1.76;100.00
47670;BME280;33408;52.062;11.722;2023-03-03T08:28:10;102047.63;;;1.99;100.00
47670;BME280;33408;52.062;11.722;2023-03-03T08:30:38;102032.09;;;1.72;100.00
47670;BME280;33408;52.062;11.722;2023-03-03T08:33:05;102048.28;;;1.72;100.00
47670;BME280;33408;52.062;11.722;2023-03-03T08:35:33;102050.69;;;1.68;100.00
47670;BME280;33408;52.062;11.722;2023-03-03T08:38:00;102046.81;;;1.77;100.00
47670;BME280;33408;52.062;11.722;2023-03-03T08:40:27;102044.94;;;1.96;100.00
47670;BME280;33408;52.062;11.722;2023-03-03T08:42:53;102032.09;;;2.17;100.00
47670;BME280;33408;52.062;11.722;2023-03-03T08:45:20;102038.25;;;2.22;100.00
47670;BME280;33408;52.062;11.722;2023-03-03T08:47:47;102027.47;;;2.07;100.00
47670;BME280;33408;52.062;11.722;2023-03-03T08:50:14;102032.91;;;2.16;100.00
47670;BME280;33408;52.062;11.722;2023-03-03T08:52:42;102038.56;;;2.07;100.00
47670;BME280;33408;52.062;11.722;2023-03-03T08:55:10;102032.03;;;1.93;100.00
47670;BME280;33408;52.062;11.722;2023-03-03T08:57:36;102038.78;;;2.13;100.00
47670;BME280;33408;52.062;11.722;2023-03-03T09:00:05;102030.50;;;2.21;100.00
47670;BME280;33408;52.062;11.722;2023-03-03T09:02:32;102025.56;;;2.25;100.00
47670;BME280;33408;52.062;11.722;2023-03-03T09:04:59;102029.69;;;2.22;100.00
47670;BME280;33408;52.062;11.722;2023-03-03T09:07:25;102032.88;;;2.14;100.00
47670;BME280;33408;52.062;11.722;2023-03-03T09:09:53;102029.00;;;2.26;100.00
47670;BME280;33408;52.062;11.722;2023-03-03T09:12:26;102030.28;;;2.37;100.00
47670;BME280;33408;52.062;11.722;2023-03-03T09:14:55;102036.69;;;2.26;100.00
47670;BME280;33408;52.062;11.722;2023-03-03T09:17:24;102039.66;;;2.14;100.00
47670;BME280;33408;52.062;11.722;2023-03-03T09:19:51;102038.91;;;2.16;100.00
47670;BME280;33408;52.062;11.722;2023-03-03T09:22:23;102034.66;;;2.41;100.00
47670;BME280;33408;52.062;11.722;2023-03-03T09:24:53;102029.88;;;2.50;100.00
47670;BME280;33408;52.062;11.722;2023-03-03T09:27:27;102035.81;;;2.49;100.00
47670;BME280;33408;52.062;11.722;2023-03-03T09:29:56;102029.00;;;2.74;100.00
47670;BME280;33408;52.062;11.722;2023-03-03T09:32:30;102019.38;;;2.67;100.00
47670;BME280;33408;52.062;11.722;2023-03-03T09:34:59;102033.63;;;2.84;100.00
47670;BME280;33408;52.062;11.722;2023-03-03T09:37:28;102026.94;;;2.64;100.00
47670;BME280;33408;52.062;11.722;2023-03-03T09:40:00;102037.16;;;2.64;100.00
47670;BME280;33408;52.062;11.722;2023-03-03T09:42:36;102039.84;;;2.67;100.00
47670;BME280;33408;52.062;11.722;2023-03-03T09:45:25;102044.16;;;2.68;100.00
47670;BME280;33408;52.062;11.722;2023-03-03T09:48:18;102045.63;;;2.61;100.00
47670;BME280;33408;52.062;11.722;2023-03-03T09:50:59;102041.94;;;2.77;100.00
47670;BME280;33408;52.062;11.722;2023-03-03T09:53:41;102041.34;;;2.86;100.00
47670;BME280;33408;52.062;11.722;2023-03-03T09:56:18;102038.09;;;2.90;100.00
47670;BME280;33408;52.062;11.722;2023-03-03T09:58:56;102031.13;;;2.62;100.00
47670;BME280;33408;52.062;11.722;2023-03-03T10:01:35;102033.13;;;2.69;100.00
47670;BME280;33408;52.062;11.722;2023-03-03T10:04:17;102048.03;;;2.57;100.00
47670;BME280;33408;52.062;11.722;2023-03-03T10:06:55;102051.13;;;2.48;100.00
47670;BME280;33408;52.062;11.722;2023-03-03T10:09:40;102048.84;;;2.55;100.00
47670;BME280;33408;52.062;11.722;2023-03-03T10:12:18;102045.06;;;2.70;100.00
47670;BME280;33408;52.062;11.722;2023-03-03T10:15:09;102052.47;;;2.86;100.00
47670;BME280;33408;52.062;11.722;2023-03-03T10:17:47;102045.91;;;2.95;100.00
47670;BME280;33408;52.062;11.722;2023-03-03T10:20:25;102047.56;;;2.92;100.00
47670;BME280;33408;52.062;11.722;2023-03-03T10:23:01;102048.22;;;3.38;100.00
47670;BME280;33408;52.062;11.722;2023-03-03T10:25:37;102047.94;;;3.29;100.00
47670;BME280;33408;52.062;11.722;2023-03-03T10:28:46;102045.25;;;3.00;100.00
47670;BME280;33408;52.062;11.722;2023-03-03T10:31:21;102044.78;;;3.12;100.00
47670;BME280;33408;52.062;11.722;2023-03-03T10:33:56;102044.09;;;3.16;100.00
47670;BME280;33408;52.062;11.722;2023-03-03T10:36:28;102043.56;;;3.01;100.00
47670;BME280;33408;52.062;11.722;2023-03-03T10:39:05;102043.28;;;3.17;100.00
47670;BME280;33408;52.062;11.722;2023-03-03T10:44:56;102036.81;;;3.28;100.00
47670;BME280;33408;52.062;11.722;2023-03-03T10:47:52;102034.38;;;3.06;100.00
47670;BME280;33408;52.062;11.722;2023-03-03T10:50:30;102039.50;;;3.33;100.00
47670;BME280;33408;52.062;11.722;2023-03-03T10:53:13;102034.31;;;3.30;100.00
47670;BME280;33408;52.062;11.722;2023-03-03T10:55:47;102036.03;;;3.58;100.00
47670;BME280;33408;52.062;11.722;2023-03-03T10:58:37;102034.31;;;3.86;100.00
47670;BME280;33408;52.062;11.722;2023-03-03T11:01:15;102029.41;;;4.23;100.00
47670;BME280;33408;52.062;11.722;2023-03-03T11:04:16;102024.84;;;3.83;100.00
47670;BME280;33408;52.062;11.722;2023-03-03T11:06:49;102021.91;;;3.71;100.00
47670;BME280;33408;52.062;11.722;2023-03-03T11:09:30;102023.03;;;3.81;100.00
47670;BME280;33408;52.062;11.722;2023-03-03T11:12:05;102027.59;;;3.61;100.00
47670;BME280;33408;52.062;11.722;2023-03-03T11:14:39;102016.69;;;3.41;100.00
47670;BME280;33408;52.062;11.722;2023-03-03T11:17:18;102021.81;;;3.68;100.00
47670;BME280;33408;52.062;11.722;2023-03-03T11:19:59;102020.72;;;3.89;100.00
47670;BME280;33408;52.062;11.722;2023-03-03T11:22:33;102023.94;;;3.83;100.00
47670;BME280;33408;52.062;11.722;2023-03-03T11:25:25;102014.50;;;3.80;100.00
47670;BME280;33408;52.062;11.722;2023-03-03T11:28:07;102005.81;;;4.06;100.00
47670;BME280;33408;52.062;11.722;2023-03-03T11:30:47;102008.38;;;4.36;100.00
47670;BME280;33408;52.062;11.722;2023-03-03T11:33:21;101997.25;;;4.35;100.00
47670;BME280;33408;52.062;11.722;2023-03-03T11:35:51;102007.91;;;4.49;100.00
47670;BME280;33408;52.062;11.722;2023-03-03T11:38:44;102006.16;;;4.48;100.00
47670;BME280;33408;52.062;11.722;2023-03-03T11:41:18;102004.34;;;4.46;100.00
47670;BME280;33408;52.062;11.722;2023-03-03T11:43:50;102010.69;;;4.59;100.00
47670;BME280;33408;52.062;11.722;2023-03-03T11:46:21;101999.69;;;4.63;100.00
47670;BME280;33408;52.062;11.722;2023-03-03T11:48:57;101996.09;;;4.56;100.00
47670;BME280;33408;52.062;11.722;2023-03-03T11:51:34;101998.41;;;4.47;100.00
47670;BME280;33408;52.062;11.722;2023-03-03T11:54:08;101999.38;;;4.52;100.00
47670;BME280;33408;52.062;11.722;2023-03-03T11:56:40;101997.81;;;4.57;100.00
47670;BME280;33408;52.062;11.722;2023-03-03T11:59:30;101991.00;;;4.57;100.00
47670;BME280;33408;52.062;11.722;2023-03-03T12:02:03;101994.59;;;4.32;100.00
47670;BME280;33408;52.062;11.722;2023-03-03T12:04:39;101986.13;;;4.68;100.00
47670;BME280;33408;52.062;11.722;2023-03-03T12:07:21;101988.78;;;5.06;100.00
47670;BME280;33408;52.062;11.722;2023-03-03T12:10:06;101987.00;;;5.04;100.00
47670;BME280;33408;52.062;11.722;2023-03-03T12:12:40;101991.34;;;4.71;100.00
47670;BME280;33408;52.062;11.722;2023-03-03T12:15:18;101976.06;;;5.11;100.00
47670;BME280;33408;52.062;11.722;2023-03-03T12:18:01;101986.44;;;4.81;100.00
47670;BME280;33408;52.062;11.722;2023-03-03T12:20:38;101977.47;;;4.98;100.00
47670;BME280;33408;52.062;11.722;2023-03-03T12:23:20;101987.25;;;5.13;100.00
47670;BME280;33408;52.062;11.722;2023-03-03T12:25:59;101974.56;;;4.86;100.00
47670;BME280;33408;52.062;11.722;2023-03-03T12:28:30;101967.25;;;4.34;100.00
47670;BME280;33408;52.062;11.722;2023-03-03T12:31:09;101977.38;;;4.95;100.00
47670;BME280;33408;52.062;11.722;2023-03-03T12:33:59;101964.78;;;5.04;100.00
47670;BME280;33408;52.062;11.722;2023-03-03T12:36:58;101966.13;;;4.90;100.00
47670;BME280;33408;52.062;11.722;2023-03-03T12:39:42;101972.47;;;4.69;100.00
47670;BME280;33408;52.062;11.722;2023-03-03T12:42:16;101953.41;;;4.95;100.00
47670;BME280;33408;52.062;11.722;2023-03-03T12:44:49;101959.34;;;4.93;100.00
47670;BME280;33408;52.062;11.722;2023-03-03T12:47:24;101965.59;;;5.03;100.00
47670;BME280;33408;52.062;11.722;2023-03-03T12:50:02;101961.16;;;4.96;100.00
47670;BME280;33408;52.062;11.722;2023-03-03T12:52:43;101958.69;;;5.02;100.00
47670;BME280;33408;52.062;11.722;2023-03-03T12:55:18;101955.69;;;5.19;100.00
47670;BME280;33408;52.062;11.722;2023-03-03T12:57:50;101953.13;;;5.19;100.00
47670;BME280;33408;52.062;11.722;2023-03-03T13:00:27;101950.72;;;4.90;100.00
47670;BME280;33408;52.062;11.722;2023-03-03T13:03:01;101954.34;;;4.98;100.00